createdAt,value
2023-05-22T00:03:09.572Z,5.20
2023-05-22T00:07:13.597Z,5.60
2023-05-22T00:11:16.553Z,5.70
2023-05-22T00:15:19.280Z,5.40
2023-05-22T00:19:23.148Z,6.80
2023-05-22T00:23:27.960Z,6.30
2023-05-22T00:27:30.733Z,6.10
2023-05-22T00:31:33.710Z,5.80
2023-05-22T00:35:37.574Z,4.90
2023-05-22T00:39:40.533Z,6.20
2023-05-22T00:43:45.212Z,7.60
2023-05-22T00:47:48.143Z,6.70
2023-05-22T00:51:50.977Z,6.30
2023-05-22T00:55:54.507Z,6.60
2023-05-22T00:59:57.486Z,6.90
2023-05-22T01:04:02.035Z,5.20
2023-05-22T01:08:07.099Z,6.90
2023-05-22T01:12:34.337Z,4.90
2023-05-22T01:16:49.607Z,6.30
2023-05-22T01:21:30.342Z,6.20
2023-05-22T01:26:09.923Z,6.80
2023-05-22T01:30:50.178Z,7.20
2023-05-22T01:34:56.727Z,6.60
2023-05-22T01:39:01.585Z,6.90
2023-05-22T01:43:04.773Z,6.90
2023-05-22T01:47:08.343Z,7.00
2023-05-22T01:51:23.909Z,6.80
2023-05-22T01:55:35.342Z,7.50
2023-05-22T02:00:15.686Z,6.00
2023-05-22T02:04:23.415Z,6.90
2023-05-22T02:08:27.819Z,6.60
2023-05-22T02:12:31.065Z,7.20
2023-05-22T02:16:33.944Z,6.80
2023-05-22T02:20:36.884Z,7.80
2023-05-22T02:24:44.109Z,6.50
2023-05-22T02:28:46.827Z,7.70
2023-05-22T02:32:49.601Z,6.90
2023-05-22T02:36:52.816Z,7.20
2023-05-22T02:40:55.643Z,6.60
2023-05-22T02:44:58.430Z,6.00
2023-05-22T02:49:01.377Z,7.60
2023-05-22T02:53:04.257Z,7.00
2023-05-22T02:57:08.277Z,7.10
2023-05-22T03:01:11.145Z,7.30
2023-05-22T03:05:20.218Z,5.80
2023-05-22T03:09:23.018Z,6.80
2023-05-22T03:13:25.978Z,7.30
2023-05-22T03:17:28.798Z,6.30
2023-05-22T03:21:31.718Z,7.30
2023-05-22T03:25:34.559Z,7.30
2023-05-22T03:29:37.482Z,6.70
2023-05-22T03:34:32.474Z,6.50
2023-05-22T03:38:35.431Z,7.60
2023-05-22T03:42:38.622Z,6.20
2023-05-22T04:08:33.692Z,6.60
2023-05-22T04:12:41.517Z,7.30
2023-05-22T04:16:44.332Z,6.90
2023-05-22T04:20:47.105Z,7.20
2023-05-22T04:24:50.192Z,7.50
2023-05-22T04:28:53.053Z,7.10
2023-05-22T04:32:56.777Z,8.60
2023-05-22T04:37:00.157Z,6.10
2023-05-22T04:41:08.802Z,7.60
2023-05-22T04:45:13.811Z,6.60
2023-05-22T04:49:16.586Z,5.60
2023-05-22T04:53:33.525Z,10.60
2023-05-22T04:57:36.389Z,16.00
2023-05-22T05:01:39.328Z,6.10
2023-05-22T05:05:42.218Z,6.10
2023-05-22T05:09:44.948Z,5.60
2023-05-22T05:14:58.936Z,6.10
2023-05-22T05:19:01.735Z,8.10
2023-05-22T05:23:04.592Z,6.30
2023-05-22T05:27:07.436Z,7.80
2023-05-22T05:31:10.688Z,6.10
2023-05-22T05:35:13.684Z,5.20
2023-05-22T05:39:16.459Z,5.70
2023-05-22T05:43:20.254Z,5.30
2023-05-22T05:47:24.146Z,5.30
2023-05-22T05:51:27.025Z,6.20
2023-05-22T05:55:29.832Z,4.50
2023-05-22T05:59:32.617Z,6.40
2023-05-22T06:03:35.613Z,9.40
2023-05-22T06:07:39.753Z,6.00
2023-05-22T06:12:12.890Z,7.10
2023-05-22T06:16:15.867Z,4.80
2023-05-22T06:25:10.083Z,4.50
2023-05-22T06:29:12.867Z,3.60
2023-05-22T06:56:05.821Z,4.80
2023-05-22T07:00:25.928Z,4.10
2023-05-22T07:04:28.712Z,4.20
2023-05-22T07:08:31.579Z,3.90
2023-05-22T07:12:34.320Z,5.10
2023-05-22T07:16:37.264Z,15.80
2023-05-22T07:20:40.390Z,4.90
2023-05-22T07:24:43.716Z,4.50
2023-05-22T07:28:46.901Z,14.70
2023-05-22T07:32:51.199Z,4.80
2023-05-22T07:36:54.187Z,3.70
2023-05-22T07:41:02.950Z,3.50
2023-05-22T07:45:06.381Z,4.00
2023-05-22T07:49:10.373Z,3.80
2023-05-22T07:53:38.404Z,3.50
2023-05-22T07:57:41.666Z,3.60
2023-05-22T08:01:44.445Z,3.20
2023-05-22T08:05:47.565Z,4.20
2023-05-22T08:09:50.541Z,3.50
2023-05-22T08:13:53.470Z,3.70
2023-05-22T08:17:56.278Z,3.70
2023-05-22T09:29:25.993Z,2.70
2023-05-22T09:33:29.981Z,2.40
2023-05-22T09:37:35.509Z,3.50
2023-05-22T09:41:39.875Z,3.00
2023-05-22T09:45:42.813Z,2.90
2023-05-22T09:50:25.832Z,2.50
2023-05-22T10:00:23.909Z,2.90
2023-05-22T10:09:26.205Z,2.50
2023-05-22T10:13:30.227Z,2.90
2023-05-22T10:17:34.332Z,2.50
2023-05-22T10:21:39.073Z,2.60
2023-05-22T10:25:52.104Z,2.30
2023-05-22T10:30:13.446Z,2.30
2023-05-22T10:34:28.478Z,4.60
2023-05-22T10:38:40.736Z,2.90
2023-05-22T10:42:44.247Z,3.50
2023-05-22T10:47:17.390Z,2.50
2023-05-22T10:56:02.755Z,2.70
2023-05-22T11:00:15.960Z,2.60
2023-05-22T11:04:19.424Z,5.20
2023-05-22T11:08:25.759Z,2.60
2023-05-22T11:12:31.304Z,3.50
2023-05-22T11:16:34.913Z,2.70
2023-05-22T11:20:40.168Z,2.80
2023-05-22T11:24:43.825Z,2.70
2023-05-22T11:28:51.898Z,2.30
2023-05-22T11:32:55.481Z,3.30
2023-05-22T11:37:00.024Z,2.90
2023-05-22T11:41:03.431Z,2.40
2023-05-22T11:45:07.532Z,3.10
2023-05-22T11:49:13.393Z,3.40
2023-05-22T11:53:16.679Z,3.10
2023-05-22T11:57:20.336Z,2.50
2023-05-22T12:01:23.710Z,3.20
2023-05-22T12:05:26.966Z,2.70
2023-05-22T12:09:30.304Z,2.70
2023-05-22T12:13:33.490Z,2.30
2023-05-22T12:17:40.138Z,2.70
2023-05-22T12:21:44.802Z,2.50
2023-05-22T12:25:48.049Z,2.60
2023-05-22T12:29:52.983Z,2.50
2023-05-22T12:33:57.364Z,2.20
2023-05-22T12:38:00.650Z,2.70
2023-05-22T12:42:04.044Z,2.20
2023-05-22T12:46:07.275Z,2.50
2023-05-22T12:50:10.959Z,1.70
2023-05-22T12:54:15.465Z,3.20
2023-05-22T12:58:18.649Z,2.30
2023-05-22T13:02:22.026Z,2.90
2023-05-22T13:06:27.987Z,2.90
2023-05-22T13:10:33.007Z,2.70
2023-05-22T13:14:39.038Z,2.80
2023-05-22T13:18:42.373Z,3.10
2023-05-22T13:22:46.496Z,2.50
2023-05-22T13:27:23.760Z,3.20
2023-05-22T13:31:27.922Z,2.60
2023-05-22T13:35:32.080Z,3.10
2023-05-22T13:39:36.084Z,1.50
2023-05-22T13:43:40.060Z,3.40
2023-05-22T13:47:45.420Z,2.10
2023-05-22T13:51:49.866Z,3.40
2023-05-22T13:55:55.815Z,2.20
2023-05-22T14:00:02.720Z,3.10
2023-05-22T14:04:07.157Z,3.50
2023-05-22T14:08:12.898Z,2.60
2023-05-22T14:12:17.333Z,2.00
2023-05-22T14:16:23.721Z,2.80
2023-05-22T14:20:27.949Z,2.20
2023-05-22T14:24:32.653Z,3.10
2023-05-22T14:28:37.090Z,2.60
2023-05-22T14:32:42.312Z,2.20
2023-05-22T14:36:46.851Z,3.20
2023-05-22T14:40:54.718Z,2.10
2023-05-22T14:44:59.829Z,3.00
2023-05-22T14:49:03.889Z,3.50
2023-05-22T14:53:07.227Z,2.60
2023-05-22T14:57:10.898Z,2.20
2023-05-22T15:01:14.221Z,2.90
2023-05-22T15:05:17.850Z,3.10
2023-05-22T15:09:21.333Z,3.60
2023-05-22T15:13:24.796Z,8.60
2023-05-22T15:17:28.024Z,2.30
2023-05-22T15:21:31.602Z,3.10
2023-05-22T15:25:36.832Z,2.70
2023-05-22T15:33:51.459Z,2.40
2023-05-22T15:37:54.771Z,2.70
2023-05-22T15:42:05.684Z,3.00
2023-05-22T15:46:12.476Z,2.70
2023-05-22T15:50:17.006Z,2.20
2023-05-22T15:54:20.902Z,2.90
2023-05-22T15:58:24.512Z,3.40
2023-05-22T16:02:28.311Z,2.80
2023-05-22T16:06:33.103Z,3.80
2023-05-22T16:15:22.201Z,2.50
2023-05-22T16:19:25.135Z,2.70
2023-05-22T16:23:28.118Z,2.80
2023-05-22T16:27:31.083Z,3.00
2023-05-22T16:31:35.567Z,2.40
2023-05-22T16:35:38.948Z,2.90
2023-05-22T16:39:45.820Z,2.40
2023-05-22T16:43:49.414Z,2.10
2023-05-22T16:47:56.820Z,3.20
2023-05-22T16:51:59.762Z,3.00
2023-05-22T16:56:02.821Z,2.80
2023-05-22T17:00:06.905Z,2.70
2023-05-22T17:04:14.447Z,2.20
2023-05-22T17:08:17.606Z,2.10
2023-05-22T17:12:31.826Z,2.30
2023-05-22T17:16:34.848Z,3.70
2023-05-22T17:20:38.182Z,2.40
2023-05-22T17:24:41.084Z,3.70
2023-05-22T17:28:43.901Z,3.20
2023-05-22T17:32:48.026Z,3.30
2023-05-22T17:36:51.122Z,4.20
2023-05-22T17:40:53.971Z,2.70
2023-05-22T17:45:25.346Z,2.80
2023-05-22T17:53:50.152Z,2.50
2023-05-22T17:57:53.023Z,3.00
2023-05-22T18:01:56.144Z,3.30
2023-05-22T18:05:59.195Z,2.50
2023-05-22T18:10:02.143Z,3.20
2023-05-22T18:14:04.873Z,3.10
2023-05-22T18:22:35.520Z,4.40
2023-05-22T18:26:38.814Z,4.10
2023-05-22T18:30:44.657Z,6.10
2023-05-22T18:39:07.906Z,7.30
2023-05-22T18:43:10.794Z,9.50
2023-05-22T18:47:13.772Z,5.90
2023-05-22T18:51:22.971Z,4.90
2023-05-22T18:55:25.786Z,5.00
2023-05-22T19:05:04.675Z,4.10
2023-05-22T19:09:11.057Z,3.00
2023-05-22T19:13:13.814Z,3.30
2023-05-22T19:17:16.841Z,3.10
2023-05-22T19:21:20.101Z,4.30
2023-05-22T19:25:23.010Z,3.90
2023-05-22T19:29:25.784Z,4.50
2023-05-22T19:33:31.155Z,3.20
2023-05-22T19:37:34.057Z,3.90
2023-05-22T19:41:37.158Z,3.80
2023-05-22T19:45:40.057Z,4.30
2023-05-22T19:49:42.892Z,5.30
2023-05-22T19:53:45.658Z,4.40
2023-05-22T19:57:48.634Z,3.90
2023-05-22T20:01:53.862Z,4.40
2023-05-22T20:05:57.464Z,4.90
2023-05-22T20:10:00.291Z,4.80
2023-05-22T20:14:03.752Z,4.70
2023-05-22T20:18:08.517Z,5.10
2023-05-22T20:22:27.728Z,4.00
2023-05-22T20:26:30.471Z,5.50
2023-05-22T20:30:33.278Z,5.30
2023-05-22T20:34:36.554Z,6.10
2023-05-22T20:38:42.548Z,5.80
2023-05-22T20:42:46.193Z,6.60
2023-05-22T20:46:55.071Z,8.10
2023-05-22T20:50:57.857Z,7.50
2023-05-22T20:55:00.788Z,5.50
2023-05-22T20:59:03.612Z,5.70
2023-05-22T21:03:14.475Z,5.30
2023-05-22T21:07:18.214Z,5.10
2023-05-22T21:11:21.015Z,4.70
2023-05-22T21:15:23.779Z,5.70
2023-05-22T21:19:26.680Z,5.60
2023-05-22T21:23:29.491Z,6.50
2023-05-22T21:27:32.428Z,5.30
2023-05-22T21:31:35.811Z,6.20
2023-05-22T21:35:39.161Z,5.50
2023-05-22T21:39:41.917Z,6.20
2023-05-22T21:43:47.314Z,5.60
2023-05-22T21:47:50.189Z,5.10
2023-05-22T21:51:53.567Z,6.80
2023-05-22T21:55:56.686Z,8.10
2023-05-22T21:59:59.506Z,7.40
2023-05-22T22:04:02.385Z,9.80
2023-05-22T22:08:05.993Z,6.90
2023-05-22T22:12:08.862Z,9.30
2023-05-22T22:16:13.895Z,7.40
2023-05-22T22:20:18.661Z,7.90
2023-05-22T22:24:23.337Z,8.30
2023-05-22T22:28:26.420Z,6.30
2023-05-22T22:32:29.199Z,7.60
2023-05-22T22:36:33.133Z,8.50
2023-05-22T22:40:35.874Z,6.00
2023-05-22T22:45:34.019Z,5.40
2023-05-22T22:49:37.402Z,6.20
2023-05-22T22:53:42.437Z,6.60
2023-05-22T22:57:49.844Z,5.90
2023-05-22T23:01:53.092Z,5.20
2023-05-22T23:05:56.297Z,6.30
2023-05-22T23:10:03.724Z,7.50
2023-05-22T23:14:08.588Z,7.20
2023-05-22T23:18:17.383Z,7.80
2023-05-22T23:22:20.259Z,7.70
2023-05-22T23:26:23.046Z,6.80
2023-05-22T23:30:26.498Z,6.70
2023-05-22T23:34:29.229Z,6.90
2023-05-22T23:38:51.178Z,6.40
2023-05-22T23:42:53.915Z,8.50
2023-05-22T23:46:57.039Z,7.50
2023-05-22T23:51:29.382Z,5.70
2023-05-22T23:55:32.142Z,6.80
2023-05-22T23:59:40.546Z,7.20
